LFRC

Cherbourg-Maupertus Airport

Cherbourg/Maupertus, France
TAF LFRC 241400Z 2415/2424 02010KT 9999 SCT030
Issued Valid From Valid To
Sep-24 @ 14:00 UTC
(9 hours ago)
Sep-24 @ 15:00 UTC
(8 hours ago)
Sep-25 @ 00:00 UTC
(in 35 minutes)
Sep-24 @ 15:00 to Sep-25 @ 00:00
TAF LFRC 241400Z 2415/2424 02010KT 9999 SCT030
Wind Visibility Clouds
20° at 10 knots 10,000+ meters
  • Scattered at 3,000' AGL
TAF LFRC 241400Z 2415/2424 02010KT 9999 SCT030
Issued Sep-24 @ 14:00 UTC
(9 hours ago)
Valid From Sep-24 @ 15:00 UTC
(8 hours ago)
Valid To Sep-25 @ 00:00 UTC
(in 35 minutes)
Sep-24 @ 15:00 - Sep-25 @ 00:00
Wind Visibility
20° at 10 knots 10,000+ meters
Clouds
  • Scattered at 3,000' AGL